Time;durP1;ratioP1;P1;durP2;ratioP2;P2;SDS_P1;SDS_P2;PMS_P1;PMS_P2;Temp;Humidity;BMP_temperature;BMP_pressure;BME280_temperature;BME280_humidity;BME280_pressure;Samples;Min_cycle;Max_cycle;Signal;HPM_P1;HPM_P2
2022/01/24 00:00:53;;;;;;;31.30;16.95;;;;;;;;;;5064144;28;20029;-72
2022/01/24 00:03:18;;;;;;;34.20;17.85;;;;;;;;;;5061882;28;20438;-72
2022/01/24 00:05:44;;;;;;;33.05;17.35;;;;;;;;;;5059736;28;20100;-72
2022/01/24 00:08:09;;;;;;;31.50;16.57;;;;;;;;;;5064661;28;20045;-71
2022/01/24 00:10:37;;;;;;;32.30;16.65;;;;;;;;;;5070227;28;20060;-71
2022/01/24 00:18:28;;;;;;;32.00;16.88;;;;;;;;;;5059483;28;20134;-71
2022/01/24 00:29:04;;;;;;;35.88;18.08;;;;;;;;;;5064415;28;20047;-71
2022/01/24 00:31:30;;;;;;;40.22;19.63;;;;;;;;;;5065839;28;20020;-72
2022/01/24 00:33:55;;;;;;;39.00;19.90;;;;;;;;;;5067693;28;20315;-71
2022/01/24 00:36:20;;;;;;;37.17;19.13;;;;;;;;;;5063692;28;20124;-73
2022/01/24 00:38:45;;;;;;;39.20;20.23;;;;;;;;;;5068385;28;20180;-72
2022/01/24 00:41:14;;;;;;;39.70;18.90;;;;;;;;;;5063082;28;20395;-71
2022/01/24 00:46:42;;;;;;;42.30;21.58;;;;;;;;;;5068713;28;20116;-72
2022/01/24 00:57:01;;;;;;;44.92;20.65;;;;;;;;;;5063153;28;20401;-71
2022/01/24 00:59:26;;;;;;;41.83;21.88;;;;;;;;;;5065946;28;20032;-71
2022/01/24 01:01:52;;;;;;;44.13;21.38;;;;;;;;;;5066405;28;20040;-72
2022/01/24 01:04:18;;;;;;;49.50;23.00;;;;;;;;;;5067132;28;20020;-71
2022/01/24 01:06:45;;;;;;;46.55;22.40;;;;;;;;;;5065115;28;20045;-71
2022/01/24 01:20:06;;;;;;;39.67;19.98;;;;;;;;;;5068263;28;20403;-72
2022/01/24 01:22:31;;;;;;;45.50;20.00;;;;;;;;;;5066662;28;20036;-70
2022/01/24 01:24:57;;;;;;;39.15;19.52;;;;;;;;;;5063586;28;20037;-70
2022/01/24 01:27:28;;;;;;;41.10;21.47;;;;;;;;;;5062685;28;20023;-71
2022/01/24 01:30:01;;;;;;;39.10;19.63;;;;;;;;;;5066945;28;20032;-71
2022/01/24 01:35:34;;;;;;;40.65;19.52;;;;;;;;;;5067425;28;20106;-72
2022/01/24 01:54:35;;;;;;;37.53;19.70;;;;;;;;;;5061353;28;20499;-71
2022/01/24 01:57:01;;;;;;;38.97;18.35;;;;;;;;;;5067556;28;20036;-72
2022/01/24 01:59:26;;;;;;;41.73;19.73;;;;;;;;;;5062684;28;20472;-72
2022/01/24 02:01:51;;;;;;;41.67;19.92;;;;;;;;;;5067503;28;20032;-71
2022/01/24 02:04:16;;;;;;;40.17;19.70;;;;;;;;;;5061216;28;20541;-71
2022/01/24 02:06:43;;;;;;;41.17;19.70;;;;;;;;;;5063994;28;20102;-71
2022/01/24 02:09:10;;;;;;;37.67;18.63;;;;;;;;;;5061946;28;21030;-71
2022/01/24 02:11:35;;;;;;;35.28;18.63;;;;;;;;;;5066255;28;20118;-72
2022/01/24 02:14:06;;;;;;;39.33;19.73;;;;;;;;;;5062098;28;20044;-71
2022/01/24 02:21:45;;;;;;;33.90;18.05;;;;;;;;;;5066113;28;20039;-71
2022/01/24 02:24:12;;;;;;;39.35;19.60;;;;;;;;;;5068801;28;20039;-73
2022/01/24 02:26:38;;;;;;;37.30;18.27;;;;;;;;;;5060530;28;20037;-72
2022/01/24 02:29:29;;;;;;;33.85;18.05;;;;;;;;;;5061431;28;20575;-71
2022/01/24 02:31:55;;;;;;;34.22;17.50;;;;;;;;;;5058369;28;20044;-71
2022/01/24 02:34:22;;;;;;;39.10;19.67;;;;;;;;;;5069437;28;20391;-71
2022/01/24 02:36:48;;;;;;;39.60;20.35;;;;;;;;;;5067916;28;20090;-70
2022/01/24 02:49:56;;;;;;;36.67;18.65;;;;;;;;;;5061475;28;20051;-70
2022/01/24 02:52:25;;;;;;;38.50;19.77;;;;;;;;;;5068838;28;20032;-71
2022/01/24 02:54:50;;;;;;;38.60;17.92;;;;;;;;;;5069411;28;20063;-72
2022/01/24 02:57:15;;;;;;;36.33;18.37;;;;;;;;;;5065012;28;20101;-71
2022/01/24 02:59:41;;;;;;;42.47;19.63;;;;;;;;;;5061892;28;20024;-71
2022/01/24 03:02:06;;;;;;;39.00;19.63;;;;;;;;;;5059816;28;20016;-70
2022/01/24 03:04:32;;;;;;;38.28;18.50;;;;;;;;;;5069055;28;20112;-72
2022/01/24 03:06:57;;;;;;;37.60;18.90;;;;;;;;;;5064522;28;20412;-71
2022/01/24 03:09:23;;;;;;;38.80;19.17;;;;;;;;;;5067246;28;20024;-72
2022/01/24 03:14:13;;;;;;;38.67;18.67;;;;;;;;;;5061044;28;20102;-72
2022/01/24 03:16:38;;;;;;;41.70;19.10;;;;;;;;;;5064095;28;20103;-71
2022/01/24 03:19:04;;;;;;;35.27;18.43;;;;;;;;;;5067253;28;20021;-71
2022/01/24 03:21:29;;;;;;;39.87;19.43;;;;;;;;;;5066176;28;20029;-71
2022/01/24 03:23:54;;;;;;;40.93;20.50;;;;;;;;;;5060763;28;20025;-73
2022/01/24 03:26:19;;;;;;;40.73;19.50;;;;;;;;;;5064695;28;20122;-70
2022/01/24 03:28:44;;;;;;;40.20;19.63;;;;;;;;;;5062886;28;20632;-73
2022/01/24 03:31:09;;;;;;;38.87;19.20;;;;;;;;;;5066635;28;20020;-72
2022/01/24 03:33:35;;;;;;;41.45;19.98;;;;;;;;;;5067169;28;20522;-72
2022/01/24 03:36:00;;;;;;;37.75;18.55;;;;;;;;;;5069632;28;20044;-72
2022/01/24 03:38:25;;;;;;;38.97;18.30;;;;;;;;;;5060152;28;20388;-71
2022/01/24 03:40:50;;;;;;;36.03;17.88;;;;;;;;;;5060216;28;20440;-70
2022/01/24 03:43:17;;;;;;;40.63;19.80;;;;;;;;;;5067543;28;20020;-70
2022/01/24 03:45:46;;;;;;;41.53;19.13;;;;;;;;;;5065959;28;20086;-72
2022/01/24 03:48:26;;;;;;;43.33;19.95;;;;;;;;;;5068814;28;20029;-71
2022/01/24 03:50:51;;;;;;;41.37;20.07;;;;;;;;;;5068496;28;20068;-71
2022/01/24 03:53:17;;;;;;;42.40;19.57;;;;;;;;;;5066058;28;20059;-72
2022/01/24 03:55:42;;;;;;;40.88;19.42;;;;;;;;;;5065810;28;20139;-71
2022/01/24 03:58:07;;;;;;;40.13;20.33;;;;;;;;;;5065268;28;20025;-71
2022/01/24 04:00:33;;;;;;;36.97;18.97;;;;;;;;;;5064733;28;20052;-71
2022/01/24 04:02:58;;;;;;;39.27;19.00;;;;;;;;;;5062359;28;20041;-73
2022/01/24 04:05:24;;;;;;;41.33;20.53;;;;;;;;;;5063072;28;20135;-73
2022/01/24 04:07:49;;;;;;;41.50;19.83;;;;;;;;;;5069412;28;20091;-71
2022/01/24 04:10:18;;;;;;;42.33;21.10;;;;;;;;;;5067974;28;20060;-72
2022/01/24 04:12:43;;;;;;;38.25;18.98;;;;;;;;;;5069084;28;20471;-71
2022/01/24 04:15:46;;;;;;;35.90;19.38;;;;;;;;;;5067593;28;20056;-71
2022/01/24 04:18:13;;;;;;;37.03;18.33;;;;;;;;;;5059606;28;20043;-71
2022/01/24 04:23:22;;;;;;;40.33;20.17;;;;;;;;;;5066336;28;20040;-71
2022/01/24 04:25:48;;;;;;;38.97;19.10;;;;;;;;;;5068740;28;20044;-71
2022/01/24 04:28:13;;;;;;;37.73;19.13;;;;;;;;;;5067399;28;20025;-72
2022/01/24 04:30:38;;;;;;;42.00;20.43;;;;;;;;;;5068087;28;20048;-72
2022/01/24 04:33:03;;;;;;;41.87;21.03;;;;;;;;;;5064882;28;20025;-70
2022/01/24 04:35:29;;;;;;;40.37;19.30;;;;;;;;;;5067059;28;20044;-71
2022/01/24 04:37:54;;;;;;;37.15;19.75;;;;;;;;;;5068393;28;20375;-70
2022/01/24 04:40:20;;;;;;;40.67;19.37;;;;;;;;;;5068079;28;20054;-71
2022/01/24 04:42:51;;;;;;;41.17;19.50;;;;;;;;;;5065566;28;20059;-73
2022/01/24 04:56:05;;;;;;;48.33;22.57;;;;;;;;;;5039749;28;20048;-73
2022/01/24 04:58:30;;;;;;;41.90;20.07;;;;;;;;;;5040591;28;20140;-73
2022/01/24 05:00:55;;;;;;;44.17;21.47;;;;;;;;;;5041488;28;20164;-72
2022/01/24 05:03:20;;;;;;;43.77;20.43;;;;;;;;;;5036089;28;20060;-72
2022/01/24 05:05:46;;;;;;;42.67;20.70;;;;;;;;;;5041705;28;20033;-74
2022/01/24 05:08:14;;;;;;;49.30;22.23;;;;;;;;;;5040709;28;20044;-71
2022/01/24 05:10:52;;;;;;;42.87;20.73;;;;;;;;;;5037163;28;20037;-72
2022/01/24 05:23:55;;;;;;;37.27;19.00;;;;;;;;;;5038842;28;20501;-72
2022/01/24 05:26:21;;;;;;;39.47;19.27;;;;;;;;;;5041020;28;20112;-72
2022/01/24 05:28:46;;;;;;;44.05;20.00;;;;;;;;;;5042499;28;20424;-71
2022/01/24 05:31:11;;;;;;;44.37;20.97;;;;;;;;;;5067254;28;20025;-72
2022/01/24 05:33:36;;;;;;;43.27;19.97;;;;;;;;;;5065435;28;20074;-71
2022/01/24 05:36:01;;;;;;;40.97;19.87;;;;;;;;;;5057821;28;20024;-71
2022/01/24 05:38:27;;;;;;;38.50;18.97;;;;;;;;;;5066536;28;20024;-72
2022/01/24 05:40:52;;;;;;;39.67;18.75;;;;;;;;;;5067579;28;20028;-72
2022/01/24 05:43:18;;;;;;;39.10;18.60;;;;;;;;;;5069056;28;20020;-73
2022/01/24 05:45:43;;;;;;;37.77;17.30;;;;;;;;;;5066027;28;20032;-73
2022/01/24 05:48:08;;;;;;;38.77;18.43;;;;;;;;;;5067628;28;20051;-72
2022/01/24 05:50:34;;;;;;;40.17;19.10;;;;;;;;;;5067756;28;20288;-72
2022/01/24 05:52:59;;;;;;;37.70;18.73;;;;;;;;;;5067206;28;20024;-72
2022/01/24 05:55:24;;;;;;;39.57;19.80;;;;;;;;;;5066868;28;20471;-71
2022/01/24 05:57:52;;;;;;;43.23;20.57;;;;;;;;;;5062649;28;20021;-73
2022/01/24 06:00:18;;;;;;;42.87;20.27;;;;;;;;;;5065767;28;20047;-71
2022/01/24 06:02:43;;;;;;;42.83;19.53;;;;;;;;;;5067773;28;20543;-71
2022/01/24 06:05:08;;;;;;;45.20;21.77;;;;;;;;;;5067300;28;20028;-71
2022/01/24 06:07:33;;;;;;;45.20;22.13;;;;;;;;;;5066592;28;20419;-71
2022/01/24 06:09:58;;;;;;;40.93;21.27;;;;;;;;;;5068434;28;20025;-71
2022/01/24 06:12:25;;;;;;;47.93;20.63;;;;;;;;;;5064851;28;20028;-72
2022/01/24 06:14:50;;;;;;;42.90;19.47;;;;;;;;;;5068287;28;20082;-70
2022/01/24 06:17:17;;;;;;;44.43;21.67;;;;;;;;;;5064409;28;20578;-74
2022/01/24 06:19:42;;;;;;;49.17;21.50;;;;;;;;;;5068100;28;20066;-74
2022/01/24 06:22:07;;;;;;;40.13;19.53;;;;;;;;;;5067817;28;20502;-72
2022/01/24 06:24:32;;;;;;;41.53;19.10;;;;;;;;;;5068313;28;20024;-73
2022/01/24 06:26:58;;;;;;;39.87;19.00;;;;;;;;;;5066907;28;20031;-73
2022/01/24 06:29:23;;;;;;;44.67;19.90;;;;;;;;;;5062726;28;20474;-73
2022/01/24 06:31:48;;;;;;;37.77;18.43;;;;;;;;;;5067829;28;20116;-73
2022/01/24 06:34:13;;;;;;;43.53;19.57;;;;;;;;;;5066820;28;20016;-73
2022/01/24 06:36:38;;;;;;;44.23;18.97;;;;;;;;;;5068314;28;20484;-74
2022/01/24 06:39:05;;;;;;;43.90;20.67;;;;;;;;;;5066172;28;20017;-67
2022/01/24 06:41:34;;;;;;;41.83;19.33;;;;;;;;;;5062690;28;20107;-68
2022/01/24 06:43:59;;;;;;;46.07;19.87;;;;;;;;;;5067775;28;20471;-67
2022/01/24 06:46:24;;;;;;;42.73;19.43;;;;;;;;;;5064087;28;20029;-68
2022/01/24 06:48:49;;;;;;;39.80;18.77;;;;;;;;;;5066751;28;20104;-67
2022/01/24 06:51:17;;;;;;;39.93;19.13;;;;;;;;;;5061912;28;20035;-68
2022/01/24 06:53:42;;;;;;;50.33;21.23;;;;;;;;;;5063220;28;20494;-66
2022/01/24 06:56:07;;;;;;;44.40;19.07;;;;;;;;;;5067446;28;20033;-67
2022/01/24 06:58:33;;;;;;;45.73;19.47;;;;;;;;;;5063826;28;20101;-68
2022/01/24 07:00:58;;;;;;;43.47;19.63;;;;;;;;;;5067478;28;20032;-67
2022/01/24 07:03:23;;;;;;;46.57;20.47;;;;;;;;;;5069616;28;20447;-61
2022/01/24 07:05:48;;;;;;;44.97;20.03;;;;;;;;;;5071252;28;20024;-64
2022/01/24 07:08:13;;;;;;;42.63;19.20;;;;;;;;;;5071219;28;20052;-61
2022/01/24 07:10:39;;;;;;;43.60;19.97;;;;;;;;;;5071758;28;20035;-61
2022/01/24 07:13:04;;;;;;;48.43;21.97;;;;;;;;;;5064144;28;20502;-61
2022/01/24 07:15:36;;;;;;;44.97;20.37;;;;;;;;;;5060249;28;20044;-61
2022/01/24 07:20:35;;;;;;;45.33;20.10;;;;;;;;;;5071052;28;20059;-61
2022/01/24 07:23:00;;;;;;;46.10;20.30;;;;;;;;;;5058901;28;20029;-60
2022/01/24 07:25:25;;;;;;;38.33;18.23;;;;;;;;;;5063183;28;20031;-61
2022/01/24 07:27:50;;;;;;;44.03;21.43;;;;;;;;;;5070995;28;20040;-61
2022/01/24 07:30:16;;;;;;;43.00;20.30;;;;;;;;;;5068264;28;20103;-62
2022/01/24 07:32:41;;;;;;;42.93;19.80;;;;;;;;;;5069234;28;20058;-62
2022/01/24 07:35:06;;;;;;;43.30;20.23;;;;;;;;;;5064684;28;20044;-61
2022/01/24 07:37:31;;;;;;;42.67;20.17;;;;;;;;;;5070014;28;20029;-61
2022/01/24 07:39:57;;;;;;;38.53;18.97;;;;;;;;;;5071342;28;20028;-62
2022/01/24 07:42:40;;;;;;;39.77;18.67;;;;;;;;;;5070985;28;20025;-62
2022/01/24 07:45:05;;;;;;;36.07;17.90;;;;;;;;;;5071426;28;20066;-61
2022/01/24 07:47:30;;;;;;;37.83;18.00;;;;;;;;;;5071364;28;20417;-61
2022/01/24 07:49:56;;;;;;;36.63;17.77;;;;;;;;;;5066694;28;20486;-61
2022/01/24 07:52:21;;;;;;;38.97;18.80;;;;;;;;;;5070406;28;20029;-62
2022/01/24 07:54:46;;;;;;;36.27;18.93;;;;;;;;;;5070558;28;20036;-61
2022/01/24 07:57:11;;;;;;;34.73;17.57;;;;;;;;;;5069754;28;20452;-60
2022/01/24 07:59:36;;;;;;;35.27;17.27;;;;;;;;;;5068775;28;20060;-61
2022/01/24 08:02:02;;;;;;;34.78;17.55;;;;;;;;;;5070681;28;20056;-61
2022/01/24 08:04:27;;;;;;;35.83;18.10;;;;;;;;;;5070519;28;20036;-60
2022/01/24 08:06:53;;;;;;;31.58;16.50;;;;;;;;;;5070228;28;20483;-61
2022/01/24 08:09:19;;;;;;;33.67;17.57;;;;;;;;;;5070207;28;20578;-61
2022/01/24 08:11:44;;;;;;;35.50;17.25;;;;;;;;;;5070377;28;20082;-62
2022/01/24 08:14:09;;;;;;;32.97;17.33;;;;;;;;;;5069041;28;20043;-60
2022/01/24 08:16:35;;;;;;;32.13;17.08;;;;;;;;;;5069585;28;20471;-61
2022/01/24 08:19:00;;;;;;;36.17;17.70;;;;;;;;;;5069905;28;20067;-61
2022/01/24 08:21:25;;;;;;;35.83;16.83;;;;;;;;;;5066911;28;20017;-61
2022/01/24 08:23:51;;;;;;;34.08;16.88;;;;;;;;;;5069683;28;20036;-61
2022/01/24 08:26:17;;;;;;;29.95;16.58;;;;;;;;;;5070058;28;20029;-61
2022/01/24 08:28:42;;;;;;;35.53;17.75;;;;;;;;;;5070150;28;20016;-61
2022/01/24 08:31:07;;;;;;;33.00;17.10;;;;;;;;;;5070038;28;20048;-60
2022/01/24 08:33:33;;;;;;;33.63;17.20;;;;;;;;;;5065263;28;20071;-61
2022/01/24 08:35:58;;;;;;;36.08;17.17;;;;;;;;;;5069971;28;20082;-60
2022/01/24 08:38:24;;;;;;;32.50;16.95;;;;;;;;;;5069626;28;20426;-62
2022/01/24 08:40:53;;;;;;;37.50;17.63;;;;;;;;;;5062986;28;20028;-61
2022/01/24 08:43:36;;;;;;;37.90;17.30;;;;;;;;;;5070002;28;20055;-62
2022/01/24 08:46:01;;;;;;;41.03;18.85;;;;;;;;;;5070026;28;20020;-61
2022/01/24 08:48:27;;;;;;;37.13;16.80;;;;;;;;;;5069993;28;20039;-61
2022/01/24 08:50:54;;;;;;;39.13;18.77;;;;;;;;;;5068497;28;20020;-61
2022/01/24 08:53:19;;;;;;;40.40;17.63;;;;;;;;;;5063408;28;20024;-61
2022/01/24 08:55:45;;;;;;;40.05;18.00;;;;;;;;;;5069604;28;20048;-63
2022/01/24 08:58:13;;;;;;;44.08;18.42;;;;;;;;;;5069590;28;20052;-62
2022/01/24 09:00:38;;;;;;;39.53;19.13;;;;;;;;;;5067416;28;20426;-60
2022/01/24 09:03:04;;;;;;;43.22;18.70;;;;;;;;;;5069527;28;20100;-59
2022/01/24 09:05:34;;;;;;;41.25;18.33;;;;;;;;;;5069677;28;20029;-61
2022/01/24 09:07:59;;;;;;;44.35;19.98;;;;;;;;;;5069165;28;20060;-62
2022/01/24 09:10:25;;;;;;;43.92;20.27;;;;;;;;;;5069056;28;20032;-61
2022/01/24 09:12:50;;;;;;;39.20;18.83;;;;;;;;;;5069336;28;20090;-61
2022/01/24 09:15:15;;;;;;;40.38;18.70;;;;;;;;;;5068627;28;20040;-61
2022/01/24 09:17:42;;;;;;;39.70;19.70;;;;;;;;;;5069165;28;20150;-61
2022/01/24 09:20:08;;;;;;;44.80;19.67;;;;;;;;;;5068941;28;20095;-62
2022/01/24 09:22:34;;;;;;;39.45;19.35;;;;;;;;;;5066329;28;20099;-66
2022/01/24 09:24:59;;;;;;;38.53;19.30;;;;;;;;;;5068741;28;20017;-61
2022/01/24 09:27:25;;;;;;;40.65;19.50;;;;;;;;;;5062915;28;20086;-61
2022/01/24 09:29:50;;;;;;;46.58;19.75;;;;;;;;;;5065317;28;20031;-61
2022/01/24 09:32:15;;;;;;;39.78;18.17;;;;;;;;;;5065910;28;20024;-62
2022/01/24 09:34:40;;;;;;;42.97;19.40;;;;;;;;;;5068455;28;20328;-61
2022/01/24 09:37:05;;;;;;;37.88;17.10;;;;;;;;;;5068939;28;20434;-61
2022/01/24 09:39:31;;;;;;;39.90;18.15;;;;;;;;;;5068102;28;20024;-60
2022/01/24 09:41:56;;;;;;;41.35;18.60;;;;;;;;;;5068812;28;20036;-61
2022/01/24 09:44:21;;;;;;;45.30;19.13;;;;;;;;;;5068967;28;20044;-60
2022/01/24 09:46:46;;;;;;;40.03;18.08;;;;;;;;;;5068855;28;20088;-61
2022/01/24 09:49:12;;;;;;;40.15;17.33;;;;;;;;;;5068949;28;20021;-61
2022/01/24 09:51:38;;;;;;;48.45;20.70;;;;;;;;;;5062330;28;20036;-61
2022/01/24 09:54:06;;;;;;;40.08;18.25;;;;;;;;;;5061940;28;20218;-61
2022/01/24 09:56:32;;;;;;;40.03;18.05;;;;;;;;;;5061789;28;20886;-61
2022/01/24 09:58:57;;;;;;;38.90;17.73;;;;;;;;;;5068718;28;20095;-62
2022/01/24 10:01:23;;;;;;;39.78;17.88;;;;;;;;;;5068371;28;20059;-61
2022/01/24 10:04:08;;;;;;;33.90;16.42;;;;;;;;;;5068907;28;20028;-63
2022/01/24 10:06:52;;;;;;;39.33;16.95;;;;;;;;;;5068600;28;20040;-61
2022/01/24 10:09:17;;;;;;;38.92;18.52;;;;;;;;;;5067670;28;20028;-61
2022/01/24 10:12:00;;;;;;;37.83;16.55;;;;;;;;;;5068855;28;20033;-61
2022/01/24 10:17:22;;;;;;;36.50;17.67;;;;;;;;;;5058693;28;20035;-62
2022/01/24 10:19:47;;;;;;;37.33;15.57;;;;;;;;;;5068368;28;20107;-62
2022/01/24 10:22:12;;;;;;;34.00;16.27;;;;;;;;;;5061455;28;20071;-61
2022/01/24 10:24:49;;;;;;;35.60;15.57;;;;;;;;;;5068189;28;20059;-62
2022/01/24 10:27:17;;;;;;;37.45;16.75;;;;;;;;;;5068211;28;20055;-61
2022/01/24 10:29:57;;;;;;;36.20;17.27;;;;;;;;;;5063302;28;20384;-61
2022/01/24 10:32:42;;;;;;;31.67;15.60;;;;;;;;;;5066897;28;20020;-62
2022/01/24 10:35:26;;;;;;;34.15;15.25;;;;;;;;;;5068193;28;20739;-62
2022/01/24 10:38:13;;;;;;;31.95;16.25;;;;;;;;;;5062983;28;20151;-61
2022/01/24 10:40:51;;;;;;;34.03;16.45;;;;;;;;;;5062309;28;20024;-60
2022/01/24 10:43:24;;;;;;;31.17;16.13;;;;;;;;;;5059754;28;20020;-61
2022/01/24 10:45:50;;;;;;;31.15;14.75;;;;;;;;;;5064185;28;20544;-61
2022/01/24 10:48:20;;;;;;;32.88;15.70;;;;;;;;;;5060910;28;20020;-62
2022/01/24 10:50:45;;;;;;;32.53;16.35;;;;;;;;;;5065418;28;20109;-61
2022/01/24 10:53:13;;;;;;;28.02;14.25;;;;;;;;;;5071571;28;20145;-61
2022/01/24 10:55:39;;;;;;;28.15;14.27;;;;;;;;;;5065012;28;20431;-61
2022/01/24 10:58:04;;;;;;;26.42;14.38;;;;;;;;;;5071609;28;20024;-62
2022/01/24 11:00:30;;;;;;;24.95;14.10;;;;;;;;;;5066699;28;20035;-62
2022/01/24 11:02:59;;;;;;;25.40;13.80;;;;;;;;;;5071130;28;20050;-61
2022/01/24 11:05:26;;;;;;;24.17;12.82;;;;;;;;;;5071863;28;20036;-62
2022/01/24 11:07:53;;;;;;;25.08;13.52;;;;;;;;;;5071221;28;20492;-61
2022/01/24 11:10:18;;;;;;;25.63;14.27;;;;;;;;;;5071664;28;20110;-62
2022/01/24 11:12:43;;;;;;;27.33;14.18;;;;;;;;;;5071174;28;20056;-61
2022/01/24 11:15:10;;;;;;;26.80;13.95;;;;;;;;;;5071687;28;20123;-60
2022/01/24 11:17:36;;;;;;;27.02;13.85;;;;;;;;;;5072577;28;20301;-62
2022/01/24 11:20:03;;;;;;;24.13;13.70;;;;;;;;;;5072554;28;20029;-62
2022/01/24 11:22:30;;;;;;;26.83;14.20;;;;;;;;;;5063776;28;20090;-60
2022/01/24 11:25:06;;;;;;;30.42;15.60;;;;;;;;;;5070870;28;20416;-62
2022/01/24 11:27:31;;;;;;;29.50;15.63;;;;;;;;;;5066331;28;20506;-62
2022/01/24 11:29:59;;;;;;;33.80;15.25;;;;;;;;;;5069019;28;20033;-61
2022/01/24 11:32:26;;;;;;;28.58;14.13;;;;;;;;;;5071720;28;20031;-61
2022/01/24 11:34:52;;;;;;;32.55;16.52;;;;;;;;;;5067094;28;20433;-62
2022/01/24 11:37:50;;;;;;;30.50;15.32;;;;;;;;;;5069234;28;20048;-61
2022/01/24 11:40:17;;;;;;;26.10;13.85;;;;;;;;;;5042556;28;20041;-61
2022/01/24 11:42:45;;;;;;;29.48;14.50;;;;;;;;;;5047194;28;20036;-61
2022/01/24 11:45:14;;;;;;;26.58;14.68;;;;;;;;;;5040625;28;20035;-61
2022/01/24 11:47:41;;;;;;;27.55;14.00;;;;;;;;;;5047591;28;20032;-61
2022/01/24 11:50:24;;;;;;;27.17;13.45;;;;;;;;;;5047957;28;20025;-61
2022/01/24 11:52:50;;;;;;;27.15;14.18;;;;;;;;;;5042320;28;20020;-62
2022/01/24 11:55:30;;;;;;;24.42;12.02;;;;;;;;;;5039106;28;20025;-61
2022/01/24 11:57:55;;;;;;;;;;;;;;;;;;5046649;28;20468;-61
2022/01/24 12:00:26;;;;;;;23.27;12.32;;;;;;;;;;5047398;28;20422;-61
2022/01/24 12:02:58;;;;;;;24.95;13.52;;;;;;;;;;5047445;28;20288;-61
2022/01/24 12:05:25;;;;;;;25.10;13.45;;;;;;;;;;5044224;28;20410;-61
2022/01/24 12:07:51;;;;;;;24.27;13.25;;;;;;;;;;5033071;28;20235;-61
2022/01/24 12:10:36;;;;;;;26.75;13.32;;;;;;;;;;5047098;28;20396;-60
2022/01/24 12:13:03;;;;;;;24.42;12.98;;;;;;;;;;5047357;28;20387;-62
2022/01/24 12:15:38;;;;;;;20.08;12.07;;;;;;;;;;5054512;28;20503;-61
2022/01/24 12:18:09;;;;;;;24.45;13.43;;;;;;;;;;5069269;28;20158;-62
2022/01/24 12:20:34;;;;;;;28.98;15.43;;;;;;;;;;5069232;28;20796;-61
2022/01/24 12:23:25;;;;;;;25.13;14.50;;;;;;;;;;5068703;28;20171;-62
2022/01/24 12:25:56;;;;;;;27.92;14.02;;;;;;;;;;5069812;28;20031;-62
2022/01/24 12:28:25;;;;;;;28.60;14.45;;;;;;;;;;5054955;28;20029;-61
2022/01/24 12:31:07;;;;;;;26.02;14.23;;;;;;;;;;5063569;28;20028;-61
2022/01/24 12:33:38;;;;;;;27.50;14.52;;;;;;;;;;5065927;28;20502;-60
2022/01/24 12:36:05;;;;;;;27.95;14.25;;;;;;;;;;5067596;28;20032;-61
2022/01/24 12:38:48;;;;;;;26.52;14.48;;;;;;;;;;5057057;28;20021;-63
2022/01/24 12:41:31;;;;;;;27.88;14.00;;;;;;;;;;5069313;28;20024;-61
2022/01/24 12:44:10;;;;;;;24.85;13.75;;;;;;;;;;5068760;28;20103;-60
2022/01/24 12:46:35;;;;;;;25.33;13.57;;;;;;;;;;5069305;28;20352;-61
2022/01/24 12:49:02;;;;;;;23.13;12.85;;;;;;;;;;5068391;28;20366;-61
2022/01/24 12:51:28;;;;;;;24.90;13.13;;;;;;;;;;5062584;28;20025;-61
2022/01/24 12:53:54;;;;;;;24.83;13.55;;;;;;;;;;5062520;28;20020;-62
2022/01/24 12:56:23;;;;;;;22.10;13.25;;;;;;;;;;5068786;28;20480;-61
2022/01/24 12:58:49;;;;;;;25.00;13.75;;;;;;;;;;5064855;28;20025;-62
2022/01/24 13:01:20;;;;;;;24.15;13.68;;;;;;;;;;5068933;28;20043;-60
2022/01/24 13:03:50;;;;;;;26.40;12.82;;;;;;;;;;5060064;28;20517;-62
2022/01/24 13:06:16;;;;;;;24.80;13.27;;;;;;;;;;5063253;28;20048;-61
2022/01/24 13:08:55;;;;;;;25.83;13.50;;;;;;;;;;5065557;28;20028;-60
2022/01/24 13:11:20;;;;;;;25.17;13.55;;;;;;;;;;5069519;28;20103;-62
2022/01/24 13:14:05;;;;;;;26.73;13.95;;;;;;;;;;5069068;28;20087;-62
2022/01/24 13:22:14;;;;;;;24.85;13.82;;;;;;;;;;5065452;28;20386;-62
2022/01/24 13:24:39;;;;;;;23.60;13.30;;;;;;;;;;5068908;28;20032;-62
2022/01/24 13:27:05;;;;;;;20.85;12.48;;;;;;;;;;5068601;28;20024;-63
2022/01/24 13:29:37;;;;;;;22.83;12.85;;;;;;;;;;5068705;28;20036;-61
2022/01/24 13:32:03;;;;;;;22.73;12.38;;;;;;;;;;5068929;28;20030;-61
2022/01/24 13:34:28;;;;;;;25.25;12.82;;;;;;;;;;5067117;28;20763;-60
2022/01/24 13:37:04;;;;;;;27.33;14.15;;;;;;;;;;5067701;28;20040;-61
2022/01/24 13:39:29;;;;;;;28.80;14.07;;;;;;;;;;5068829;28;20031;-60
2022/01/24 13:41:54;;;;;;;28.38;13.77;;;;;;;;;;5068766;28;20028;-61
2022/01/24 13:44:19;;;;;;;31.05;14.40;;;;;;;;;;5068867;28;20078;-61
2022/01/24 13:46:46;;;;;;;26.85;13.88;;;;;;;;;;5068527;28;20016;-61
2022/01/24 13:49:12;;;;;;;25.98;14.38;;;;;;;;;;5068626;28;20486;-61
2022/01/24 13:51:43;;;;;;;25.35;13.73;;;;;;;;;;5067116;28;20039;-62
2022/01/24 13:54:09;;;;;;;26.73;14.23;;;;;;;;;;5064158;28;20384;-61
2022/01/24 13:56:35;;;;;;;20.88;11.30;;;;;;;;;;5068405;28;20032;-61
2022/01/24 13:59:00;;;;;;;24.00;12.48;;;;;;;;;;5068254;28;20024;-61
2022/01/24 14:01:25;;;;;;;22.67;12.93;;;;;;;;;;5068509;28;20012;-62
2022/01/24 14:03:58;;;;;;;28.63;14.02;;;;;;;;;;5068690;28;20334;-61
2022/01/24 14:06:23;;;;;;;23.80;12.70;;;;;;;;;;5068220;28;20040;-61
2022/01/24 14:09:01;;;;;;;22.48;12.82;;;;;;;;;;5068637;28;20485;-60
2022/01/24 14:11:28;;;;;;;23.55;13.02;;;;;;;;;;5067909;28;20725;-61
2022/01/24 14:13:55;;;;;;;24.45;14.68;;;;;;;;;;5071577;28;20387;-61
2022/01/24 14:16:46;;;;;;;22.92;12.18;;;;;;;;;;5072424;28;20032;-61
2022/01/24 14:19:12;;;;;;;20.75;12.27;;;;;;;;;;5069334;28;20020;-62
2022/01/24 14:21:37;;;;;;;23.10;13.48;;;;;;;;;;5065460;28;20095;-61
2022/01/24 14:24:02;;;;;;;21.42;12.70;;;;;;;;;;5072423;28;20020;-61
2022/01/24 14:26:29;;;;;;;19.00;11.25;;;;;;;;;;5070348;28;20372;-61
2022/01/24 14:29:04;;;;;;;22.00;10.40;;;;;;;;;;5069895;28;20086;-61
2022/01/24 14:31:29;;;;;;;20.17;11.73;;;;;;;;;;5072007;28;20084;-61
2022/01/24 14:33:58;;;;;;;18.63;10.98;;;;;;;;;;5072063;28;20042;-60
2022/01/24 14:36:24;;;;;;;17.95;11.02;;;;;;;;;;5063671;28;20148;-60
2022/01/24 14:39:00;;;;;;;22.52;12.48;;;;;;;;;;5069773;28;20027;-62
2022/01/24 14:41:30;;;;;;;21.63;13.20;;;;;;;;;;5066213;28;20103;-61
2022/01/24 14:46:40;;;;;;;21.35;12.57;;;;;;;;;;5067045;28;20039;-61
2022/01/24 14:49:17;;;;;;;19.63;11.50;;;;;;;;;;5069795;28;20028;-61
2022/01/24 14:51:44;;;;;;;21.20;12.55;;;;;;;;;;5069679;28;20021;-61
2022/01/24 14:54:30;;;;;;;20.45;12.32;;;;;;;;;;5064312;28;20085;-60
2022/01/24 14:56:58;;;;;;;21.77;12.90;;;;;;;;;;5070782;28;20068;-60
2022/01/24 14:59:24;;;;;;;22.50;13.15;;;;;;;;;;5070067;28;20460;-61
2022/01/24 15:01:49;;;;;;;19.88;12.15;;;;;;;;;;5070251;28;20021;-60
2022/01/24 15:04:15;;;;;;;20.33;11.93;;;;;;;;;;5071577;28;20031;-60
2022/01/24 15:06:40;;;;;;;21.55;12.40;;;;;;;;;;5069270;28;20049;-61
2022/01/24 15:09:07;;;;;;;21.67;13.02;;;;;;;;;;5070020;28;20035;-62
2022/01/24 15:11:35;;;;;;;23.02;13.40;;;;;;;;;;5064277;28;20106;-61
2022/01/24 15:14:09;;;;;;;24.02;13.65;;;;;;;;;;5068037;28;20035;-61
2022/01/24 15:24:40;;;;;;;26.52;15.65;;;;;;;;;;5068223;28;20478;-61
2022/01/24 15:27:06;;;;;;;29.00;16.13;;;;;;;;;;5069803;28;20063;-61
2022/01/24 15:29:31;;;;;;;27.00;15.98;;;;;;;;;;5066607;28;20066;-60
2022/01/24 15:31:57;;;;;;;30.42;16.40;;;;;;;;;;5059638;28;20096;-61
2022/01/24 15:34:24;;;;;;;31.42;16.25;;;;;;;;;;5068245;28;20127;-60
2022/01/24 15:36:50;;;;;;;32.03;17.10;;;;;;;;;;5069535;28;20089;-60
2022/01/24 15:39:15;;;;;;;30.63;16.10;;;;;;;;;;5066227;28;20534;-62
2022/01/24 15:41:51;;;;;;;30.48;16.73;;;;;;;;;;5068765;28;20024;-61
2022/01/24 15:46:59;;;;;;;29.85;16.38;;;;;;;;;;5063804;28;20081;-61
2022/01/24 15:49:24;;;;;;;33.13;17.23;;;;;;;;;;5067777;28;20600;-62
2022/01/24 15:51:50;;;;;;;27.75;16.45;;;;;;;;;;5065952;28;20103;-61
2022/01/24 15:54:18;;;;;;;23.23;14.05;;;;;;;;;;5063412;28;20024;-61
2022/01/24 15:59:09;;;;;;;26.77;15.27;;;;;;;;;;5069551;28;20724;-61
2022/01/24 16:01:36;;;;;;;25.10;15.75;;;;;;;;;;5069457;28;20025;-61
2022/01/24 16:04:01;;;;;;;25.25;14.85;;;;;;;;;;5069676;28;20013;-62
2022/01/24 16:06:26;;;;;;;27.27;15.98;;;;;;;;;;5031685;28;1052777;-62
2022/01/24 16:08:52;;;;;;;27.60;15.43;;;;;;;;;;5070160;28;20550;-62
2022/01/24 16:11:20;;;;;;;30.98;17.08;;;;;;;;;;5070457;28;20109;-62
2022/01/24 16:13:45;;;;;;;30.35;17.23;;;;;;;;;;5070136;28;20016;-61
2022/01/24 16:16:11;;;;;;;32.78;18.13;;;;;;;;;;5069316;28;20020;-61
2022/01/24 16:18:39;;;;;;;31.08;16.98;;;;;;;;;;5062384;28;20021;-60
2022/01/24 16:21:25;;;;;;;32.33;17.37;;;;;;;;;;5066114;28;20522;-62
2022/01/24 16:25:18;;;;;;;32.30;18.45;;;;;;;;;;5062982;28;20343;-61